createdAt,value
2023-03-29T00:00:23.069Z,24.36
2023-03-29T00:02:28.247Z,24.37
2023-03-29T00:04:33.758Z,24.36
2023-03-29T00:06:38.962Z,24.37
2023-03-29T00:08:43.987Z,24.36
2023-03-29T00:10:49.107Z,24.37
2023-03-29T00:12:54.141Z,24.38
2023-03-29T00:14:59.263Z,24.39
2023-03-29T00:17:04.367Z,24.39
2023-03-29T00:19:09.689Z,24.39
2023-03-29T00:21:14.729Z,24.4
2023-03-29T00:23:19.827Z,24.38
2023-03-29T00:25:24.939Z,24.38
2023-03-29T00:27:29.988Z,24.38
2023-03-29T00:29:35.134Z,24.38
2023-03-29T00:31:40.188Z,24.38
2023-03-29T00:33:45.454Z,24.38
2023-03-29T00:35:50.570Z,24.4
2023-03-29T00:37:55.721Z,24.42
2023-03-29T00:40:00.746Z,24.42
2023-03-29T00:42:05.913Z,24.42
2023-03-29T00:44:10.958Z,24.44
2023-03-29T00:46:16.011Z,24.45
2023-03-29T00:48:21.258Z,24.45
2023-03-29T00:50:26.441Z,24.44
2023-03-29T00:52:31.591Z,24.46
2023-03-29T00:54:36.773Z,24.46
2023-03-29T00:56:41.848Z,24.45
2023-03-29T00:58:47.095Z,24.47
2023-03-29T01:00:52.217Z,24.47
2023-03-29T01:02:57.321Z,24.47
2023-03-29T01:05:02.711Z,24.49
2023-03-29T01:07:07.887Z,24.52
2023-03-29T01:09:13.167Z,24.53
2023-03-29T01:11:18.286Z,24.56
2023-03-29T01:13:23.401Z,24.59
2023-03-29T01:15:28.480Z,24.6
2023-03-29T01:17:33.559Z,24.62
2023-03-29T01:19:38.781Z,24.61
2023-03-29T01:21:43.792Z,24.62
2023-03-29T01:23:48.853Z,24.61
2023-03-29T01:25:53.939Z,24.63
2023-03-29T01:27:58.976Z,24.63
2023-03-29T01:30:04.192Z,24.62
2023-03-29T01:32:09.367Z,24.62
2023-03-29T01:34:14.913Z,24.63
2023-03-29T01:36:20.112Z,24.63
2023-03-29T01:38:25.219Z,24.64
2023-03-29T01:40:30.214Z,24.64
2023-03-29T01:42:35.246Z,24.65
2023-03-29T01:44:40.290Z,24.64
2023-03-29T01:46:45.414Z,24.65
2023-03-29T01:48:50.499Z,24.64
2023-03-29T01:50:55.551Z,24.64
2023-03-29T01:53:00.539Z,24.65
2023-03-29T01:55:05.603Z,24.66
2023-03-29T01:57:10.778Z,24.68
2023-03-29T01:59:15.995Z,24.67
2023-03-29T02:01:21.149Z,24.65
2023-03-29T02:03:26.402Z,24.62
2023-03-29T02:05:31.788Z,24.61
2023-03-29T02:07:36.927Z,24.59
2023-03-29T02:09:42.073Z,24.58
2023-03-29T02:11:47.207Z,24.57
2023-03-29T02:13:52.281Z,24.55
2023-03-29T02:15:57.390Z,24.56
2023-03-29T02:18:02.680Z,24.56
2023-03-29T02:20:07.977Z,24.55
2023-03-29T02:22:13.090Z,24.55
2023-03-29T02:24:18.097Z,24.54
2023-03-29T02:26:23.273Z,24.53
2023-03-29T02:28:28.347Z,24.52
2023-03-29T02:30:33.383Z,24.51
2023-03-29T02:32:38.430Z,24.51
2023-03-29T02:34:43.591Z,24.5
2023-03-29T02:36:48.617Z,24.47
2023-03-29T02:38:53.690Z,24.47
2023-03-29T02:40:58.896Z,24.46
2023-03-29T02:43:04.667Z,24.45
2023-03-29T02:45:09.779Z,24.44
2023-03-29T02:47:14.771Z,24.42
2023-03-29T02:49:19.841Z,24.42
2023-03-29T02:51:24.845Z,24.42
2023-03-29T02:53:29.984Z,24.41
2023-03-29T02:55:35.041Z,24.41
2023-03-29T02:57:40.062Z,24.41
2023-03-29T02:59:45.166Z,24.41
2023-03-29T03:01:50.265Z,24.41
2023-03-29T03:03:55.775Z,24.4
2023-03-29T03:06:01.014Z,24.39
2023-03-29T03:08:06.101Z,24.39
2023-03-29T03:10:11.233Z,24.4
2023-03-29T03:12:16.319Z,24.42
2023-03-29T03:14:21.467Z,24.41
2023-03-29T03:16:26.597Z,24.39
2023-03-29T03:18:31.934Z,24.38
2023-03-29T03:20:53.689Z,24.35
2023-03-29T03:22:58.691Z,24.36
2023-03-29T03:25:03.777Z,24.36
2023-03-29T03:27:08.813Z,24.36
2023-03-29T03:29:13.840Z,24.36
2023-03-29T03:31:18.963Z,24.34
2023-03-29T03:33:24.185Z,24.35
2023-03-29T03:35:29.234Z,24.35
2023-03-29T03:37:34.399Z,24.36
2023-03-29T03:39:39.636Z,24.34
2023-03-29T03:41:44.686Z,24.34
2023-03-29T03:43:49.766Z,24.33
2023-03-29T03:45:54.869Z,24.32
2023-03-29T03:48:00.146Z,24.31
2023-03-29T03:50:05.403Z,24.31
2023-03-29T03:52:10.476Z,24.32
2023-03-29T03:54:15.585Z,24.32
2023-03-29T03:56:20.641Z,24.32
2023-03-29T03:58:25.676Z,24.32
2023-03-29T04:00:30.713Z,24.31
2023-03-29T04:02:35.832Z,24.32
2023-03-29T04:04:41.212Z,24.3
2023-03-29T04:06:46.356Z,24.3
2023-03-29T04:08:51.440Z,24.31
2023-03-29T04:10:56.507Z,24.31
2023-03-29T04:13:01.658Z,24.32
2023-03-29T04:15:06.696Z,24.32
2023-03-29T04:17:11.757Z,24.31
2023-03-29T04:19:16.784Z,24.31
2023-03-29T04:21:21.826Z,24.3
2023-03-29T04:23:26.904Z,24.31
2023-03-29T04:25:31.919Z,24.32
2023-03-29T04:27:37.048Z,24.32
2023-03-29T04:29:42.208Z,24.29
2023-03-29T04:31:47.268Z,24.29
2023-03-29T04:33:52.600Z,24.29
2023-03-29T04:35:57.706Z,24.29
2023-03-29T04:38:03.013Z,24.28
2023-03-29T04:40:08.049Z,24.28
2023-03-29T04:42:13.181Z,24.3
2023-03-29T04:44:18.222Z,24.29
2023-03-29T04:46:23.208Z,24.28
2023-03-29T04:48:28.463Z,24.28
2023-03-29T04:50:33.485Z,24.28
2023-03-29T04:52:38.522Z,24.26
2023-03-29T04:54:43.694Z,24.28
2023-03-29T04:56:48.953Z,24.29
2023-03-29T04:58:54.102Z,24.3
2023-03-29T05:00:59.227Z,24.31
2023-03-29T05:03:05.032Z,24.31
2023-03-29T05:05:10.387Z,24.32
2023-03-29T05:07:15.557Z,24.33
2023-03-29T05:09:20.653Z,24.33
2023-03-29T05:11:25.673Z,24.32
2023-03-29T05:13:30.727Z,24.2
2023-03-29T05:15:35.786Z,23.99
2023-03-29T05:17:43.971Z,23.79
2023-03-29T05:19:49.480Z,23.62
2023-03-29T05:21:54.510Z,23.45
2023-03-29T05:23:59.720Z,23.3
2023-03-29T05:26:04.757Z,23.14
2023-03-29T05:28:09.785Z,23.03
2023-03-29T05:30:14.840Z,22.9
2023-03-29T05:32:19.917Z,22.79
2023-03-29T05:34:25.016Z,22.71
2023-03-29T05:36:30.084Z,22.63
2023-03-29T05:38:35.108Z,22.54
2023-03-29T05:40:40.174Z,22.45
2023-03-29T05:42:45.278Z,22.39
2023-03-29T05:44:51.583Z,22.41
2023-03-29T05:46:58.533Z,22.52
2023-03-29T05:49:03.580Z,22.64
2023-03-29T05:51:08.680Z,22.75
2023-03-29T05:53:13.796Z,22.83
2023-03-29T05:55:18.834Z,22.95
2023-03-29T05:57:23.939Z,23.06
2023-03-29T05:59:29.106Z,23.18
2023-03-29T06:01:34.238Z,23.24
2023-03-29T06:03:39.356Z,23.31
2023-03-29T06:05:45.864Z,23.35
2023-03-29T06:07:53.593Z,23.38
2023-03-29T06:09:58.589Z,23.4
2023-03-29T06:12:03.680Z,23.42
2023-03-29T06:14:08.732Z,23.42
2023-03-29T06:16:14.010Z,23.43
2023-03-29T06:18:19.160Z,23.46
2023-03-29T06:20:24.222Z,23.48
2023-03-29T06:22:29.953Z,23.51
2023-03-29T06:24:34.968Z,23.53
2023-03-29T06:26:40.025Z,23.55
2023-03-29T06:28:45.132Z,23.53
2023-03-29T06:30:53.329Z,23.52
2023-03-29T06:32:58.989Z,23.5
2023-03-29T06:35:04.262Z,23.49
2023-03-29T06:37:09.276Z,23.5
2023-03-29T06:39:14.325Z,23.54
2023-03-29T06:41:19.317Z,23.52
2023-03-29T06:43:24.350Z,23.52
2023-03-29T06:45:29.532Z,23.52
2023-03-29T06:47:34.976Z,23.54
2023-03-29T06:49:40.138Z,23.58
2023-03-29T06:51:45.198Z,23.59
2023-03-29T06:53:50.274Z,23.59
2023-03-29T06:55:55.342Z,23.6
2023-03-29T06:58:02.591Z,23.58
2023-03-29T07:00:07.947Z,23.51
2023-03-29T07:02:13.020Z,23.5
2023-03-29T07:04:18.374Z,23.54
2023-03-29T07:06:23.567Z,23.56
2023-03-29T07:08:28.607Z,23.58
2023-03-29T07:10:34.187Z,23.56
2023-03-29T07:12:39.232Z,23.6
2023-03-29T07:14:46.217Z,23.62
2023-03-29T07:16:51.761Z,23.65
2023-03-29T07:18:56.792Z,23.66
2023-03-29T07:21:01.990Z,23.68
2023-03-29T07:23:07.971Z,23.69
2023-03-29T07:25:13.114Z,23.7
2023-03-29T07:27:18.153Z,23.71
2023-03-29T07:29:23.180Z,23.72
2023-03-29T07:31:28.277Z,23.73
2023-03-29T07:33:33.416Z,23.73
2023-03-29T07:35:39.064Z,23.74
2023-03-29T07:37:44.251Z,23.76
2023-03-29T07:39:49.287Z,23.77
2023-03-29T07:41:54.347Z,23.79
2023-03-29T07:43:59.412Z,23.79
2023-03-29T07:46:07.133Z,23.78
2023-03-29T07:48:12.418Z,23.82
2023-03-29T07:50:17.633Z,23.83
2023-03-29T07:52:22.688Z,23.8
2023-03-29T07:54:27.783Z,23.81
2023-03-29T07:56:32.831Z,23.8
2023-03-29T07:58:37.930Z,23.81
2023-03-29T08:00:43.067Z,23.77
2023-03-29T08:02:48.321Z,23.75
2023-03-29T08:04:53.842Z,23.75
2023-03-29T08:06:59.208Z,23.74
2023-03-29T08:09:04.603Z,23.76
2023-03-29T08:11:09.832Z,23.75
2023-03-29T08:13:15.004Z,23.76
2023-03-29T08:15:20.143Z,23.75
2023-03-29T08:17:25.244Z,23.75
2023-03-29T08:19:30.476Z,23.75
2023-03-29T08:21:35.553Z,23.74
2023-03-29T08:23:40.612Z,23.77
2023-03-29T08:25:45.713Z,23.77
2023-03-29T08:27:50.978Z,23.77
2023-03-29T08:29:56.081Z,23.77
2023-03-29T08:32:01.479Z,23.77
2023-03-29T08:34:06.540Z,23.77
2023-03-29T08:36:11.717Z,23.77
2023-03-29T08:38:16.889Z,23.77
2023-03-29T08:40:21.971Z,23.79
2023-03-29T08:42:27.110Z,23.84
2023-03-29T08:44:32.163Z,23.85
2023-03-29T08:46:37.346Z,23.86
2023-03-29T08:48:42.629Z,23.86
2023-03-29T08:50:47.690Z,23.87
2023-03-29T08:52:52.748Z,23.9
2023-03-29T08:54:57.940Z,23.9
2023-03-29T08:57:03.144Z,23.91
2023-03-29T08:59:08.392Z,23.93
2023-03-29T09:01:13.472Z,23.92
2023-03-29T09:03:18.827Z,23.93
2023-03-29T09:05:24.183Z,23.96
2023-03-29T09:07:29.277Z,23.94
2023-03-29T09:09:34.326Z,23.96
2023-03-29T09:11:39.347Z,23.97
2023-03-29T09:13:44.422Z,23.99
2023-03-29T09:15:49.711Z,23.99
2023-03-29T09:17:55.042Z,24.02
2023-03-29T09:20:00.357Z,24.02
2023-03-29T09:22:05.569Z,24.03
2023-03-29T09:24:10.623Z,24.04
2023-03-29T09:26:16.020Z,24.05
2023-03-29T09:28:21.135Z,24.06
2023-03-29T09:30:26.241Z,24.05
2023-03-29T09:32:31.456Z,24.06
2023-03-29T09:34:36.689Z,24.07
2023-03-29T09:36:41.927Z,24.06
2023-03-29T09:38:47.090Z,24.08
2023-03-29T09:40:52.142Z,24.08
2023-03-29T09:42:57.195Z,24.1
2023-03-29T09:45:02.299Z,24.1
2023-03-29T09:47:07.370Z,24.11
2023-03-29T09:49:12.520Z,24.12
2023-03-29T09:51:20.208Z,24.14
2023-03-29T09:53:25.230Z,24.12
2023-03-29T09:55:30.322Z,24.13
2023-03-29T09:57:36.141Z,24.12
2023-03-29T09:59:41.192Z,24.13
2023-03-29T10:01:46.392Z,24.13
2023-03-29T10:03:51.758Z,24.12
2023-03-29T10:05:57.180Z,24.1
2023-03-29T10:08:02.278Z,24.12
2023-03-29T10:10:07.307Z,24.11
2023-03-29T10:12:12.383Z,24.11
2023-03-29T10:14:17.541Z,24.1
2023-03-29T10:16:22.648Z,24.07
2023-03-29T10:18:27.939Z,24.05
2023-03-29T10:20:32.973Z,24.05
2023-03-29T10:22:38.235Z,24.07
2023-03-29T10:24:43.292Z,24.08
2023-03-29T10:26:48.395Z,24.1
2023-03-29T10:28:53.439Z,24.09
2023-03-29T10:30:58.564Z,24.09
2023-03-29T10:33:04.414Z,24.12
2023-03-29T10:35:09.632Z,24.1
2023-03-29T10:37:14.675Z,24.09
2023-03-29T10:39:19.815Z,24.08
2023-03-29T10:41:24.848Z,24.05
2023-03-29T10:43:29.956Z,24.06
2023-03-29T10:45:35.093Z,24.04
2023-03-29T10:47:40.286Z,24.03
2023-03-29T10:49:45.452Z,24.03
2023-03-29T10:51:53.546Z,24.03
2023-03-29T10:53:58.655Z,24.01
2023-03-29T10:56:03.682Z,24.02
2023-03-29T10:58:08.801Z,24.04
2023-03-29T11:00:13.899Z,24.06
2023-03-29T11:02:19.017Z,24.05
2023-03-29T11:04:24.230Z,24.04
2023-03-29T11:06:29.390Z,24.01
2023-03-29T11:08:34.500Z,24.03
2023-03-29T11:10:39.618Z,24.02
2023-03-29T11:12:44.763Z,24.03
2023-03-29T11:14:49.778Z,24.04
2023-03-29T11:16:54.832Z,24.07
2023-03-29T11:18:59.825Z,24.06
2023-03-29T11:21:08.547Z,24.04
2023-03-29T11:23:15.531Z,24.04
2023-03-29T11:25:20.641Z,24.07
2023-03-29T11:27:25.656Z,24.08
2023-03-29T11:29:30.789Z,24.09
2023-03-29T11:31:37.962Z,24.09
2023-03-29T11:33:43.844Z,24.09
2023-03-29T11:35:48.979Z,24.07
2023-03-29T11:37:54.237Z,24.06
2023-03-29T11:39:59.296Z,24.05
2023-03-29T11:42:04.390Z,24.04
2023-03-29T11:44:09.444Z,24.06
2023-03-29T11:46:14.603Z,24.09
2023-03-29T11:48:19.762Z,24.18
2023-03-29T11:50:24.923Z,24.24
2023-03-29T11:52:30.087Z,24.27
2023-03-29T11:54:35.146Z,24.3
2023-03-29T11:56:40.335Z,24.35
2023-03-29T11:58:45.513Z,24.39
2023-03-29T12:00:50.562Z,24.43
2023-03-29T12:02:55.708Z,24.47
2023-03-29T12:05:00.924Z,24.5
2023-03-29T12:07:06.082Z,24.55
2023-03-29T12:09:11.188Z,24.59
2023-03-29T12:11:19.541Z,24.61
2023-03-29T12:13:24.628Z,24.64
2023-03-29T12:15:29.710Z,24.66
2023-03-29T12:17:34.827Z,24.67
2023-03-29T12:19:41.877Z,24.68
2023-03-29T12:21:47.860Z,24.7
2023-03-29T12:23:53.013Z,24.71
2023-03-29T12:25:58.149Z,24.72
2023-03-29T12:28:03.318Z,24.73
2023-03-29T12:30:08.412Z,24.74
2023-03-29T12:32:13.543Z,24.75
2023-03-29T12:34:18.791Z,24.76
2023-03-29T12:36:23.854Z,24.76
2023-03-29T12:38:30.816Z,24.78
2023-03-29T12:40:36.123Z,24.79
2023-03-29T12:42:41.244Z,24.81
2023-03-29T12:44:46.332Z,24.81
2023-03-29T12:46:51.434Z,24.83
2023-03-29T12:48:56.475Z,24.86
2023-03-29T12:51:01.684Z,24.8
2023-03-29T12:53:06.810Z,24.68
2023-03-29T12:55:11.902Z,24.59
2023-03-29T12:57:16.949Z,24.51
2023-03-29T12:59:22.205Z,24.44
2023-03-29T13:01:27.464Z,24.42
2023-03-29T13:03:33.009Z,24.4
2023-03-29T13:05:38.388Z,24.39
2023-03-29T13:07:43.819Z,24.35
2023-03-29T13:09:48.967Z,24.32
2023-03-29T13:11:54.007Z,24.32
2023-03-29T13:13:59.126Z,24.33
2023-03-29T13:16:04.395Z,24.33
2023-03-29T13:18:12.217Z,24.35
2023-03-29T13:20:17.450Z,24.38
2023-03-29T13:22:22.558Z,24.38
2023-03-29T13:24:27.580Z,24.37
2023-03-29T13:26:32.633Z,24.33
2023-03-29T13:28:37.810Z,24.31
2023-03-29T13:30:42.899Z,24.28
2023-03-29T13:32:48.387Z,24.3
2023-03-29T13:34:53.661Z,24.32
2023-03-29T13:36:58.783Z,24.35
2023-03-29T13:39:03.892Z,24.36
2023-03-29T13:41:08.934Z,24.38
2023-03-29T13:43:14.031Z,24.38
2023-03-29T13:45:19.099Z,24.4
2023-03-29T13:47:24.507Z,24.38
2023-03-29T13:49:29.890Z,24.41
2023-03-29T13:51:35.031Z,24.49
2023-03-29T13:53:40.211Z,24.58
2023-03-29T13:55:45.444Z,24.66
2023-03-29T13:57:50.534Z,24.74
2023-03-29T13:59:55.621Z,24.8
2023-03-29T14:02:00.688Z,24.87
2023-03-29T14:04:06.006Z,24.91
2023-03-29T14:06:11.211Z,24.96
2023-03-29T14:08:16.294Z,24.99
2023-03-29T14:10:21.404Z,25.02
2023-03-29T14:12:26.519Z,25.05
2023-03-29T14:14:31.608Z,25.08
2023-03-29T14:16:36.765Z,25.1
2023-03-29T14:18:42.150Z,25.12
2023-03-29T14:20:47.436Z,25.13
2023-03-29T14:22:52.508Z,25.16
2023-03-29T14:24:57.610Z,25.17
2023-03-29T14:27:02.649Z,25.19
2023-03-29T14:29:07.870Z,25.19
2023-03-29T14:31:12.944Z,25.2
2023-03-29T14:33:18.088Z,25.21
2023-03-29T14:35:23.695Z,25.22
2023-03-29T14:37:29.298Z,25.23
2023-03-29T14:39:34.310Z,25.23
2023-03-29T14:41:39.372Z,25.23
2023-03-29T14:43:44.456Z,25.23
2023-03-29T14:45:49.600Z,25.22
2023-03-29T14:47:54.786Z,25.22
2023-03-29T14:49:59.965Z,25.24
2023-03-29T14:52:05.241Z,25.25
2023-03-29T14:54:10.244Z,25.28
2023-03-29T14:56:15.286Z,25.29
2023-03-29T14:58:20.411Z,25.27
2023-03-29T15:00:25.523Z,25.22
2023-03-29T15:02:30.769Z,25.21
2023-03-29T15:04:36.224Z,25.15
2023-03-29T15:06:41.323Z,25.13
2023-03-29T15:08:57.891Z,25.12
2023-03-29T15:11:10.901Z,25.12
2023-03-29T15:13:15.914Z,25.13
2023-03-29T15:15:20.950Z,25.1
2023-03-29T15:17:29.421Z,25.11
2023-03-29T15:19:55.261Z,25.11
2023-03-29T15:22:01.794Z,25.1
2023-03-29T15:24:07.311Z,25.07
2023-03-29T15:26:12.330Z,25.05
2023-03-29T15:28:17.423Z,25.03
2023-03-29T15:30:22.450Z,24.99
2023-03-29T15:32:27.623Z,25
2023-03-29T15:34:32.876Z,24.98
2023-03-29T15:36:38.065Z,24.95
2023-03-29T15:38:44.902Z,24.9
2023-03-29T15:40:50.433Z,24.89
2023-03-29T15:42:55.731Z,24.89
2023-03-29T15:45:00.857Z,24.9
2023-03-29T15:47:06.144Z,24.91
2023-03-29T15:49:11.476Z,24.92
2023-03-29T15:51:16.672Z,24.89
2023-03-29T15:53:21.740Z,24.87
2023-03-29T15:55:26.822Z,24.85
2023-03-29T15:57:31.882Z,24.81
2023-03-29T15:59:37.286Z,24.81
2023-03-29T16:01:42.483Z,24.88
2023-03-29T16:03:48.140Z,24.95
2023-03-29T16:05:53.319Z,24.99
2023-03-29T16:07:58.372Z,25.02
2023-03-29T16:10:03.442Z,25.07
2023-03-29T16:12:08.434Z,25.1
2023-03-29T16:14:13.487Z,25.12
2023-03-29T16:16:18.653Z,25.16
2023-03-29T16:18:23.813Z,25.16
2023-03-29T16:20:28.873Z,25.17
2023-03-29T16:22:33.976Z,25.15
2023-03-29T16:24:39.173Z,25.16
2023-03-29T16:26:44.326Z,25.18
2023-03-29T16:28:49.366Z,25.18
2023-03-29T16:30:54.432Z,25.16
2023-03-29T16:32:59.618Z,25.06
2023-03-29T16:35:04.910Z,25
2023-03-29T16:37:09.925Z,24.95
2023-03-29T16:39:15.027Z,24.95
2023-03-29T16:41:20.155Z,25.01
2023-03-29T16:43:25.305Z,25.01
2023-03-29T16:45:30.540Z,25.02
2023-03-29T16:47:35.702Z,25.03
2023-03-29T16:49:41.907Z,25.03
2023-03-29T16:51:50.066Z,25.04
2023-03-29T16:53:55.391Z,25.02
2023-03-29T16:56:00.490Z,25.03
2023-03-29T16:58:06.284Z,25.05
2023-03-29T17:00:11.698Z,25.07
2023-03-29T17:02:16.775Z,25.1
2023-03-29T17:04:21.865Z,25.08
2023-03-29T17:06:27.167Z,25.08
2023-03-29T17:08:32.231Z,25.1
2023-03-29T17:10:37.361Z,25.1
2023-03-29T17:12:42.420Z,25.1
2023-03-29T17:14:47.470Z,25.08
2023-03-29T17:16:52.540Z,25.09
2023-03-29T17:18:57.551Z,25.09
2023-03-29T17:21:02.668Z,25.1
2023-03-29T17:23:07.694Z,25.12
2023-03-29T17:25:12.920Z,25.14
2023-03-29T17:27:18.145Z,25.15
2023-03-29T17:29:23.324Z,25.16
2023-03-29T17:31:28.473Z,25.18
2023-03-29T17:33:33.792Z,25.2
2023-03-29T17:35:38.999Z,25.22
2023-03-29T17:37:44.307Z,25.23
2023-03-29T17:39:49.403Z,25.28
2023-03-29T17:41:54.465Z,25.32
2023-03-29T17:43:59.562Z,25.35
2023-03-29T17:46:04.918Z,25.37
2023-03-29T17:48:10.507Z,25.37
2023-03-29T17:50:15.862Z,25.37
2023-03-29T17:52:20.932Z,25.37
2023-03-29T17:54:26.020Z,25.37
2023-03-29T17:56:31.148Z,25.37
2023-03-29T17:58:36.271Z,25.36
2023-03-29T18:00:41.329Z,25.37
2023-03-29T18:02:46.713Z,25.38
2023-03-29T18:04:52.291Z,25.37
2023-03-29T18:06:57.390Z,25.36
2023-03-29T18:09:02.449Z,25.35
2023-03-29T18:11:07.476Z,25.34
2023-03-29T18:13:12.621Z,25.33
2023-03-29T18:15:17.773Z,25.34
2023-03-29T18:17:22.932Z,25.32
2023-03-29T18:19:28.377Z,25.33
2023-03-29T18:21:33.438Z,25.33
2023-03-29T18:23:38.483Z,25.33
2023-03-29T18:25:43.537Z,25.35
2023-03-29T18:27:48.714Z,25.34
2023-03-29T18:29:53.780Z,25.34
2023-03-29T18:31:58.859Z,25.32
2023-03-29T18:34:04.243Z,25.3
2023-03-29T18:36:12.147Z,25.29
2023-03-29T18:38:18.390Z,25.29
2023-03-29T18:40:23.492Z,25.28
2023-03-29T18:42:28.812Z,25.27
2023-03-29T18:44:33.854Z,25.26
2023-03-29T18:46:39.071Z,25.25
2023-03-29T18:48:44.329Z,25.26
2023-03-29T18:50:49.305Z,25.28
2023-03-29T18:52:54.270Z,25.3
2023-03-29T18:54:59.369Z,25.29
2023-03-29T18:57:04.406Z,25.29
2023-03-29T18:59:09.590Z,25.24
2023-03-29T19:01:14.672Z,25.23
2023-03-29T19:03:19.890Z,25.23
2023-03-29T19:05:25.224Z,25.26
2023-03-29T19:07:30.307Z,25.29
2023-03-29T19:09:35.410Z,25.31
2023-03-29T19:11:40.450Z,25.34
2023-03-29T19:13:45.598Z,25.35
2023-03-29T19:15:50.759Z,25.28
2023-03-29T19:17:55.965Z,25.22
2023-03-29T19:20:01.156Z,25.12
2023-03-29T19:22:06.346Z,25.05
2023-03-29T19:24:11.537Z,25
2023-03-29T19:26:16.602Z,24.95
2023-03-29T19:28:21.780Z,24.88
2023-03-29T19:30:27.043Z,24.83
2023-03-29T19:32:33.596Z,24.8
2023-03-29T19:34:39.053Z,24.79
2023-03-29T19:36:44.125Z,24.74
2023-03-29T19:38:49.215Z,24.72
2023-03-29T19:40:54.386Z,24.71
2023-03-29T19:42:59.526Z,24.71
2023-03-29T19:45:04.612Z,24.71
2023-03-29T19:47:09.736Z,24.68
2023-03-29T19:49:14.766Z,24.71
2023-03-29T19:51:19.891Z,24.71
2023-03-29T19:53:24.960Z,24.71
2023-03-29T19:55:30.017Z,24.7
2023-03-29T19:57:35.121Z,24.71
2023-03-29T19:59:40.402Z,24.69
2023-03-29T20:01:45.630Z,24.68
2023-03-29T20:03:50.997Z,24.67
2023-03-29T20:05:56.310Z,24.66
2023-03-29T20:08:01.370Z,24.65
2023-03-29T20:10:06.513Z,24.64
2023-03-29T20:12:11.619Z,24.64
2023-03-29T20:14:16.764Z,24.63
2023-03-29T20:16:21.786Z,24.62
2023-03-29T20:18:27.124Z,24.61
2023-03-29T20:20:32.211Z,24.61
2023-03-29T20:22:37.279Z,24.58
2023-03-29T20:24:42.490Z,24.57
2023-03-29T20:26:47.670Z,24.55
2023-03-29T20:28:52.803Z,24.54
2023-03-29T20:30:57.912Z,24.56
2023-03-29T20:33:03.276Z,24.55
2023-03-29T20:35:08.560Z,24.54
2023-03-29T20:37:13.647Z,24.54
2023-03-29T20:39:18.717Z,24.55
2023-03-29T20:41:26.421Z,24.56
2023-03-29T20:43:31.512Z,24.56
2023-03-29T20:45:46.344Z,24.56
2023-03-29T20:47:58.431Z,24.57
2023-03-29T20:50:03.649Z,24.56
2023-03-29T20:52:08.728Z,24.51
2023-03-29T20:54:13.923Z,24.49
2023-03-29T20:56:18.946Z,24.49
2023-03-29T20:58:24.025Z,24.49
2023-03-29T21:00:29.118Z,24.5
2023-03-29T21:02:34.314Z,24.47
2023-03-29T21:04:39.640Z,24.48
2023-03-29T21:06:44.687Z,24.46
2023-03-29T21:08:49.767Z,24.46
2023-03-29T21:10:54.848Z,24.42
2023-03-29T21:12:59.936Z,24.4
2023-03-29T21:15:05.629Z,24.39
2023-03-29T21:17:10.732Z,24.39
2023-03-29T21:19:15.825Z,24.37
2023-03-29T21:21:20.839Z,24.33
2023-03-29T21:23:25.931Z,24.28
2023-03-29T21:25:31.061Z,24.23
2023-03-29T21:27:36.182Z,24.18
2023-03-29T21:29:41.177Z,24.14
2023-03-29T21:31:46.326Z,24.08
2023-03-29T21:33:51.771Z,24.04
2023-03-29T21:35:56.825Z,24.01
2023-03-29T21:38:02.136Z,23.95
2023-03-29T21:40:07.256Z,23.9
2023-03-29T21:42:12.376Z,23.86
2023-03-29T21:44:17.481Z,23.79
2023-03-29T21:46:22.584Z,23.73
2023-03-29T21:48:27.888Z,23.72
2023-03-29T21:50:33.920Z,23.69
2023-03-29T21:52:39.068Z,23.66
2023-03-29T21:54:44.251Z,23.63
2023-03-29T21:56:49.380Z,23.6
2023-03-29T21:58:54.585Z,23.57
2023-03-29T22:00:59.825Z,23.61
2023-03-29T22:03:05.546Z,23.64
2023-03-29T22:05:10.852Z,23.65
2023-03-29T22:07:15.890Z,23.65
2023-03-29T22:09:21.085Z,23.64
2023-03-29T22:11:26.219Z,23.63
2023-03-29T22:13:31.426Z,23.6
2023-03-29T22:15:36.492Z,23.6
2023-03-29T22:17:41.618Z,23.57
2023-03-29T22:19:47.046Z,23.54
2023-03-29T22:21:52.241Z,23.56
2023-03-29T22:23:57.327Z,23.54
2023-03-29T22:26:02.381Z,23.53
2023-03-29T22:28:07.383Z,23.52
2023-03-29T22:30:12.465Z,23.49
2023-03-29T22:32:17.759Z,23.48
2023-03-29T22:34:22.994Z,23.46
2023-03-29T22:36:28.009Z,23.46
2023-03-29T22:38:33.046Z,23.46
2023-03-29T22:40:38.369Z,23.42
2023-03-29T22:42:43.481Z,23.4
2023-03-29T22:44:48.636Z,23.37
2023-03-29T22:46:53.748Z,23.33
2023-03-29T22:48:58.912Z,23.3
2023-03-29T22:51:04.242Z,23.3
2023-03-29T22:53:09.998Z,23.28
2023-03-29T22:55:15.080Z,23.28
2023-03-29T22:57:20.323Z,23.25
2023-03-29T22:59:25.598Z,23.25
2023-03-29T23:01:30.759Z,23.23
2023-03-29T23:03:35.925Z,23.23
2023-03-29T23:05:40.994Z,23.22
2023-03-29T23:07:46.031Z,23.21
2023-03-29T23:09:51.108Z,23.22
2023-03-29T23:11:56.214Z,23.24
2023-03-29T23:14:01.267Z,23.23
2023-03-29T23:16:06.432Z,23.24
2023-03-29T23:18:11.648Z,23.25
2023-03-29T23:20:16.811Z,23.25
2023-03-29T23:22:21.860Z,23.26
2023-03-29T23:24:27.114Z,23.27
2023-03-29T23:26:32.149Z,23.23
2023-03-29T23:28:37.156Z,23.22
2023-03-29T23:30:42.288Z,23.2
2023-03-29T23:32:47.363Z,23.2
2023-03-29T23:34:52.536Z,23.21
2023-03-29T23:36:57.757Z,23.21
2023-03-29T23:39:02.783Z,23.2
2023-03-29T23:41:07.890Z,23.21
2023-03-29T23:43:13.139Z,23.2
2023-03-29T23:45:18.189Z,23.2
2023-03-29T23:47:23.303Z,23.18
2023-03-29T23:49:28.659Z,23.18
2023-03-29T23:51:33.786Z,23.17
2023-03-29T23:53:38.868Z,23.17
2023-03-29T23:55:44.007Z,23.18
2023-03-29T23:57:49.002Z,23.13
2023-03-29T23:59:54.035Z,23.12
